createdAt,value
2023-04-24T00:01:12.031Z,14.06
2023-04-24T00:13:52.954Z,14.12
2023-04-24T00:27:43.756Z,14.15
2023-04-24T00:30:47.652Z,14.14
2023-04-24T00:33:14.706Z,14.16
2023-04-24T00:35:44.337Z,14.14
2023-04-24T00:38:11.121Z,14.16
2023-04-24T00:40:38.137Z,14.12
2023-04-24T00:43:04.983Z,14.10
2023-04-24T00:45:32.348Z,14.08
2023-04-24T00:48:00.829Z,14.06
2023-04-24T00:50:28.059Z,14.00
2023-04-24T00:52:55.474Z,13.92
2023-04-24T00:55:22.458Z,13.84
2023-04-24T00:57:50.388Z,13.73
2023-04-24T01:00:17.500Z,13.64
2023-04-24T01:02:46.602Z,13.57
2023-04-24T01:05:15.971Z,13.50
2023-04-24T01:07:46.756Z,13.44
2023-04-24T01:10:15.894Z,13.38
2023-04-24T01:12:45.535Z,13.31
2023-04-24T01:15:12.347Z,13.28
2023-04-24T01:17:40.287Z,13.24
2023-04-24T01:20:07.932Z,13.23
2023-04-24T01:22:35.767Z,13.24
2023-04-24T01:25:03.357Z,13.24
2023-04-24T01:27:30.613Z,13.25
2023-04-24T01:29:58.080Z,13.28
2023-04-24T01:32:26.539Z,13.25
2023-04-24T01:34:56.205Z,13.29
2023-04-24T01:37:23.110Z,13.31
2023-04-24T01:39:49.929Z,13.30
2023-04-24T01:42:17.700Z,13.29
2023-04-24T01:44:45.368Z,13.30
2023-04-24T01:47:12.585Z,13.30
2023-04-24T01:49:40.629Z,13.30
2023-04-24T01:52:07.758Z,13.29
2023-04-24T01:54:34.744Z,13.30
2023-04-24T01:57:03.535Z,13.29
2023-04-24T01:59:34.215Z,13.34
2023-04-24T02:02:01.091Z,13.32
2023-04-24T02:04:28.050Z,13.35
2023-04-24T02:06:55.432Z,13.34
2023-04-24T02:09:22.248Z,13.35
2023-04-24T02:11:49.033Z,13.35
2023-04-24T02:14:15.880Z,13.33
2023-04-24T02:16:43.416Z,13.35
2023-04-24T02:19:10.611Z,13.35
2023-04-24T02:21:37.419Z,13.34
2023-04-24T02:24:04.434Z,13.35
2023-04-24T02:26:32.722Z,13.33
2023-04-24T02:28:59.585Z,13.30
2023-04-24T02:31:26.713Z,13.31
2023-04-24T02:33:53.531Z,13.31
2023-04-24T02:36:20.487Z,13.32
2023-04-24T02:38:47.310Z,13.31
2023-04-24T02:41:14.198Z,13.29
2023-04-24T02:43:41.108Z,13.25
2023-04-24T02:46:07.947Z,13.25
2023-04-24T02:48:34.822Z,13.22
2023-04-24T02:51:01.683Z,13.22
2023-04-24T02:53:28.590Z,13.23
2023-04-24T02:55:55.572Z,13.25
2023-04-24T02:58:25.054Z,13.24
2023-04-24T03:00:56.684Z,13.24
2023-04-24T03:03:24.883Z,13.18
2023-04-24T03:05:52.020Z,13.16
2023-04-24T03:08:19.093Z,13.11
2023-04-24T03:10:48.179Z,13.12
2023-04-24T03:13:16.678Z,13.12
2023-04-24T03:15:43.734Z,13.12
2023-04-24T03:18:13.116Z,13.14
2023-04-24T03:20:39.963Z,13.14
2023-04-24T03:23:06.751Z,13.15
2023-04-24T03:25:33.523Z,13.13
2023-04-24T03:28:00.483Z,13.15
2023-04-24T03:30:27.306Z,13.14
2023-04-24T03:32:54.143Z,13.14
2023-04-24T03:35:23.440Z,13.13
2023-04-24T03:37:50.222Z,13.13
2023-04-24T03:40:17.138Z,13.12
2023-04-24T03:42:44.106Z,13.10
2023-04-24T03:45:11.352Z,13.10
2023-04-24T03:47:38.109Z,13.05
2023-04-24T03:50:05.724Z,13.02
2023-04-24T03:52:33.047Z,13.02
2023-04-24T03:54:59.888Z,13.00
2023-04-24T03:57:26.763Z,12.97
2023-04-24T03:59:54.524Z,12.89
2023-04-24T04:02:21.533Z,12.83
2023-04-24T04:04:48.531Z,12.74
2023-04-24T04:07:15.646Z,12.71
2023-04-24T04:09:45.660Z,12.65
2023-04-24T04:12:13.621Z,12.59
2023-04-24T04:14:40.413Z,12.59
2023-04-24T04:17:07.204Z,12.54
2023-04-24T04:19:34.004Z,12.56
2023-04-24T04:22:00.901Z,12.52
2023-04-24T04:24:27.724Z,12.44
2023-04-24T04:26:59.084Z,12.42
2023-04-24T04:29:26.995Z,12.40
2023-04-24T04:31:53.899Z,12.38
2023-04-24T04:34:20.791Z,12.44
2023-04-24T04:36:47.666Z,12.47
2023-04-24T04:39:18.433Z,12.50
2023-04-24T04:41:47.606Z,12.52
2023-04-24T04:44:15.049Z,12.53
2023-04-24T04:46:42.627Z,12.56
2023-04-24T04:49:09.581Z,12.56
2023-04-24T04:51:39.512Z,12.56
2023-04-24T04:54:08.698Z,12.57
2023-04-24T04:56:35.510Z,12.59
2023-04-24T04:59:04.646Z,12.58
2023-04-24T05:01:34.545Z,12.58
2023-04-24T05:04:04.828Z,12.57
2023-04-24T05:06:34.468Z,12.55
2023-04-24T05:09:01.249Z,12.55
2023-04-24T05:11:28.062Z,12.56
2023-04-24T05:13:55.936Z,12.58
2023-04-24T05:16:30.323Z,12.56
2023-04-24T05:18:57.211Z,12.55
2023-04-24T05:21:26.274Z,12.53
2023-04-24T05:23:55.978Z,12.53
2023-04-24T05:26:23.885Z,12.54
2023-04-24T05:28:52.844Z,12.58
2023-04-24T05:31:19.627Z,12.57
2023-04-24T05:33:58.949Z,12.61
2023-04-24T05:36:43.667Z,12.68
2023-04-24T05:39:37.766Z,12.74
2023-04-24T05:42:05.687Z,12.78
2023-04-24T05:44:33.032Z,12.82
2023-04-24T05:47:00.266Z,12.84
2023-04-24T05:49:27.606Z,12.83
2023-04-24T05:51:54.867Z,12.79
2023-04-24T05:54:22.065Z,12.74
2023-04-24T05:56:49.951Z,12.71
2023-04-24T05:59:17.196Z,12.66
2023-04-24T06:01:44.471Z,12.62
2023-04-24T06:04:12.297Z,12.56
2023-04-24T06:06:39.628Z,12.50
2023-04-24T06:09:06.778Z,12.47
2023-04-24T06:11:33.878Z,12.43
2023-04-24T06:14:01.115Z,12.41
2023-04-24T06:16:28.657Z,12.39
2023-04-24T06:18:56.124Z,12.39
2023-04-24T06:21:23.253Z,12.40
2023-04-24T06:23:50.716Z,12.40
2023-04-24T06:26:17.921Z,12.39
2023-04-24T06:28:45.099Z,12.39
2023-04-24T06:31:12.214Z,12.39
2023-04-24T06:33:39.402Z,12.37
2023-04-24T06:36:07.188Z,12.33
2023-04-24T06:38:35.036Z,12.33
2023-04-24T06:41:02.289Z,12.32
2023-04-24T06:43:29.032Z,12.31
2023-04-24T06:45:55.815Z,12.31
2023-04-24T06:48:26.175Z,12.31
2023-04-24T06:50:53.591Z,12.34
2023-04-24T06:53:20.331Z,12.32
2023-04-24T06:55:48.210Z,12.36
2023-04-24T06:58:15.993Z,12.36
2023-04-24T07:00:42.753Z,12.33
2023-04-24T07:03:09.871Z,12.32
2023-04-24T07:05:38.062Z,12.26
2023-04-24T07:08:05.050Z,12.21
2023-04-24T07:10:31.870Z,12.14
2023-04-24T07:12:58.582Z,12.09
2023-04-24T07:15:25.389Z,12.05
2023-04-24T07:17:52.290Z,12.06
2023-04-24T07:20:20.459Z,12.03
2023-04-24T07:22:47.261Z,12.02
2023-04-24T07:25:13.989Z,12.03
2023-04-24T07:27:40.798Z,12.03
2023-04-24T07:30:08.430Z,12.07
2023-04-24T07:32:36.010Z,12.05
2023-04-24T07:35:05.063Z,12.03
2023-04-24T07:37:31.933Z,12.04
2023-04-24T07:39:58.806Z,11.99
2023-04-24T07:42:25.517Z,11.96
2023-04-24T07:44:52.334Z,11.91
2023-04-24T07:47:19.159Z,11.91
2023-04-24T07:49:46.138Z,11.85
2023-04-24T07:52:15.464Z,11.86
2023-04-24T07:54:43.939Z,11.85
2023-04-24T07:57:11.129Z,11.84
2023-04-24T07:59:37.844Z,11.83
2023-04-24T08:02:04.728Z,11.82
2023-04-24T08:04:31.739Z,11.81
2023-04-24T08:06:58.656Z,11.77
2023-04-24T08:09:27.810Z,11.76
2023-04-24T08:11:57.725Z,11.78
2023-04-24T08:14:24.505Z,11.83
2023-04-24T08:16:51.298Z,11.85
2023-04-24T08:19:18.081Z,11.86
2023-04-24T08:21:44.822Z,11.92
2023-04-24T08:24:11.670Z,11.95
2023-04-24T08:26:38.433Z,11.94
2023-04-24T08:29:07.581Z,11.92
2023-04-24T08:31:34.388Z,11.90
2023-04-24T08:34:01.748Z,11.91
2023-04-24T08:36:43.585Z,11.90
2023-04-24T08:39:15.934Z,11.89
2023-04-24T08:41:46.490Z,11.89
2023-04-24T08:44:16.681Z,11.90
2023-04-24T08:46:50.724Z,11.90
2023-04-24T08:49:18.846Z,11.95
2023-04-24T08:51:48.522Z,11.98
2023-04-24T08:54:15.494Z,12.00
2023-04-24T08:56:46.722Z,12.05
2023-04-24T08:59:14.768Z,12.10
2023-04-24T09:01:42.252Z,12.16
2023-04-24T09:04:15.056Z,12.25
2023-04-24T09:06:43.283Z,12.33
2023-04-24T09:09:12.634Z,12.46
2023-04-24T09:11:39.665Z,12.54
2023-04-24T09:14:07.787Z,12.60
2023-04-24T09:16:36.463Z,12.67
2023-04-24T09:19:04.264Z,12.74
2023-04-24T09:21:36.137Z,12.79
2023-04-24T09:24:15.053Z,12.81
2023-04-24T09:26:41.917Z,12.83
2023-04-24T09:29:08.668Z,12.88
2023-04-24T09:31:35.728Z,12.90
2023-04-24T09:34:08.623Z,12.93
2023-04-24T09:36:42.318Z,12.95
2023-04-24T09:39:20.732Z,12.99
2023-04-24T09:41:52.895Z,13.01
2023-04-24T09:44:21.993Z,13.08
2023-04-24T09:46:55.597Z,13.17
2023-04-24T09:49:28.931Z,13.34
2023-04-24T09:52:12.526Z,13.42
2023-04-24T09:54:40.459Z,13.46
2023-04-24T09:57:10.184Z,13.50
2023-04-24T09:59:46.491Z,13.68
2023-04-24T10:02:21.075Z,14.20
2023-04-24T10:04:57.683Z,14.88
2023-04-24T10:07:27.586Z,15.65
2023-04-24T10:09:55.589Z,16.14
2023-04-24T10:12:27.082Z,16.29
2023-04-24T10:15:10.963Z,16.23
2023-04-24T10:17:41.146Z,16.10
2023-04-24T10:20:14.564Z,16.06
2023-04-24T10:22:41.659Z,16.06
2023-04-24T10:25:10.286Z,16.08
2023-04-24T10:27:38.883Z,16.10
2023-04-24T10:30:08.066Z,16.08
2023-04-24T10:32:34.868Z,16.01
2023-04-24T10:35:01.727Z,15.95
2023-04-24T10:37:29.524Z,16.03
2023-04-24T10:39:57.037Z,16.45
2023-04-24T10:42:23.971Z,17.11
2023-04-24T10:44:51.153Z,17.87
2023-04-24T10:47:29.664Z,18.52
2023-04-24T10:50:01.847Z,19.29
2023-04-24T10:52:50.729Z,20.49
2023-04-24T10:56:04.471Z,22.15
2023-04-24T10:58:45.800Z,22.50
2023-04-24T11:01:31.384Z,22.27
2023-04-24T11:04:03.337Z,21.92
2023-04-24T11:06:38.157Z,21.49
2023-04-24T11:09:08.238Z,21.06
2023-04-24T11:11:38.341Z,20.65
2023-04-24T11:14:08.045Z,20.35
2023-04-24T11:16:56.064Z,20.06
2023-04-24T11:19:27.631Z,19.80
2023-04-24T11:22:03.791Z,19.52
2023-04-24T11:24:49.695Z,19.28
2023-04-24T11:27:20.924Z,19.23
2023-04-24T11:29:50.966Z,19.43
2023-04-24T11:32:32.650Z,19.73
2023-04-24T11:35:20.291Z,20.19
2023-04-24T11:40:23.977Z,20.62
2023-04-24T11:42:54.009Z,20.63
2023-04-24T11:45:32.627Z,20.65
2023-04-24T11:48:00.059Z,20.73
2023-04-24T11:50:28.830Z,20.89
2023-04-24T11:52:56.619Z,21.06
2023-04-24T11:55:28.946Z,21.15
2023-04-24T11:58:00.528Z,21.21
2023-04-24T12:00:34.652Z,21.27
2023-04-24T12:03:11.280Z,21.38
2023-04-24T12:05:41.456Z,21.56
2023-04-24T12:08:08.594Z,21.75
2023-04-24T12:10:36.459Z,22.00
2023-04-24T12:13:06.541Z,22.17
2023-04-24T12:15:33.432Z,22.26
2023-04-24T12:18:00.389Z,22.25
2023-04-24T12:20:36.552Z,22.09
2023-04-24T12:23:04.859Z,21.93
2023-04-24T12:25:34.930Z,21.77
2023-04-24T12:28:04.755Z,21.55
2023-04-24T12:30:50.038Z,21.24
2023-04-24T12:33:23.118Z,20.92
2023-04-24T12:35:56.510Z,20.60
2023-04-24T12:38:26.819Z,20.28
2023-04-24T12:41:05.872Z,19.83
2023-04-24T12:43:32.986Z,19.45
2023-04-24T12:46:00.141Z,19.20
2023-04-24T12:48:30.583Z,19.15
2023-04-24T12:51:03.385Z,19.20
2023-04-24T12:53:33.312Z,19.28
2023-04-24T12:56:00.067Z,19.30
2023-04-24T12:58:26.919Z,19.24
2023-04-24T13:00:53.865Z,19.13
2023-04-24T13:03:20.993Z,18.98
2023-04-24T13:05:47.999Z,18.87
2023-04-24T13:08:14.836Z,18.78
2023-04-24T13:10:42.070Z,18.64
2023-04-24T13:13:09.993Z,18.49
2023-04-24T13:15:37.265Z,18.32
2023-04-24T13:18:13.025Z,18.23
2023-04-24T13:20:42.854Z,18.22
2023-04-24T13:23:09.911Z,18.23
2023-04-24T13:25:42.497Z,18.26
2023-04-24T13:28:09.382Z,18.38
2023-04-24T13:30:36.441Z,18.58
2023-04-24T13:33:03.998Z,18.71
2023-04-24T13:35:30.933Z,18.83
2023-04-24T13:38:01.841Z,18.97
2023-04-24T13:40:28.960Z,19.10
2023-04-24T13:42:55.748Z,19.20
2023-04-24T13:45:25.145Z,19.27
2023-04-24T13:47:53.429Z,19.35
2023-04-24T13:50:21.829Z,19.43
2023-04-24T13:52:48.569Z,19.46
2023-04-24T13:55:15.331Z,19.47
2023-04-24T13:57:42.110Z,19.44
2023-04-24T14:00:12.739Z,19.39
2023-04-24T14:02:40.949Z,19.43
2023-04-24T14:05:08.309Z,19.51
2023-04-24T14:07:37.529Z,19.56
2023-04-24T14:10:05.733Z,19.59
2023-04-24T14:12:32.584Z,19.66
2023-04-24T14:14:59.444Z,19.70
2023-04-24T14:17:29.157Z,19.70
2023-04-24T14:19:59.916Z,19.64
2023-04-24T14:22:27.089Z,19.56
2023-04-24T14:24:55.203Z,19.51
2023-04-24T14:27:22.128Z,19.47
2023-04-24T14:29:49.204Z,19.53
2023-04-24T14:32:16.337Z,19.56
2023-04-24T14:34:44.624Z,19.58
2023-04-24T14:37:16.838Z,19.57
2023-04-24T14:39:47.798Z,19.56
2023-04-24T14:42:18.158Z,19.59
2023-04-24T14:44:47.304Z,19.58
2023-04-24T14:47:14.138Z,19.58
2023-04-24T14:49:40.977Z,19.57
2023-04-24T14:52:10.908Z,19.53
2023-04-24T14:54:40.105Z,19.52
2023-04-24T14:57:06.936Z,19.52
2023-04-24T14:59:33.966Z,19.47
2023-04-24T15:02:15.052Z,19.42
2023-04-24T15:04:43.222Z,19.37
2023-04-24T15:07:19.814Z,19.34
2023-04-24T15:09:48.078Z,19.32
2023-04-24T15:12:15.382Z,19.31
2023-04-24T15:14:42.403Z,19.31
2023-04-24T15:17:09.358Z,19.31
2023-04-24T15:19:36.172Z,19.29
2023-04-24T15:22:02.934Z,19.33
2023-04-24T15:24:29.721Z,19.31
2023-04-24T15:26:58.809Z,19.30
2023-04-24T15:29:28.186Z,19.29
2023-04-24T15:31:55.173Z,19.29
2023-04-24T15:34:22.002Z,19.28
2023-04-24T15:36:48.923Z,19.21
2023-04-24T15:39:15.946Z,19.10
2023-04-24T15:41:42.694Z,18.99
2023-04-24T15:44:09.449Z,18.88
2023-04-24T15:46:36.950Z,18.78
2023-04-24T15:49:03.738Z,18.70
2023-04-24T15:51:31.633Z,18.61
2023-04-24T15:53:58.521Z,18.55
2023-04-24T15:56:25.337Z,18.47
2023-04-24T15:58:52.185Z,18.44
2023-04-24T16:01:19.039Z,18.42
2023-04-24T16:03:46.616Z,18.44
2023-04-24T16:06:14.320Z,18.48
2023-04-24T16:08:41.050Z,18.51
2023-04-24T16:11:07.814Z,18.56
2023-04-24T16:13:34.664Z,18.59
2023-04-24T16:16:01.813Z,18.60
2023-04-24T16:18:28.603Z,18.62
2023-04-24T16:20:55.384Z,18.64
2023-04-24T16:23:22.100Z,18.61
2023-04-24T16:25:48.933Z,18.60
2023-04-24T16:28:15.712Z,18.56
2023-04-24T16:30:42.457Z,18.53
2023-04-24T16:33:10.889Z,18.50
2023-04-24T16:35:37.648Z,18.49
2023-04-24T16:38:04.726Z,18.49
2023-04-24T16:40:31.934Z,18.48
2023-04-24T16:42:58.695Z,18.45
2023-04-24T16:45:25.484Z,18.40
2023-04-24T16:47:52.325Z,18.33
2023-04-24T16:50:19.200Z,18.27
2023-04-24T16:52:46.125Z,18.18
2023-04-24T16:55:12.879Z,18.10
2023-04-24T16:57:39.667Z,18.00
2023-04-24T17:00:07.943Z,17.93
2023-04-24T17:02:34.853Z,17.86
2023-04-24T17:05:01.694Z,17.78
2023-04-24T17:07:28.446Z,17.71
2023-04-24T17:09:55.925Z,17.66
2023-04-24T17:12:22.739Z,17.61
2023-04-24T17:14:49.476Z,17.53
2023-04-24T17:17:16.423Z,17.48
2023-04-24T17:19:43.198Z,17.40
2023-04-24T17:22:09.906Z,17.34
2023-04-24T17:24:36.637Z,17.28
2023-04-24T17:27:13.967Z,17.24
2023-04-24T17:29:42.318Z,17.17
2023-04-24T17:32:09.323Z,17.10
2023-04-24T17:34:36.415Z,17.05
2023-04-24T17:37:04.651Z,17.00
2023-04-24T17:39:31.350Z,16.96
2023-04-24T17:41:58.262Z,16.89
2023-04-24T17:44:25.148Z,16.85
2023-04-24T17:46:51.899Z,16.81
2023-04-24T17:49:18.733Z,16.77
2023-04-24T17:51:45.445Z,16.72
2023-04-24T17:54:12.211Z,16.69
2023-04-24T17:56:38.936Z,16.64
2023-04-24T17:59:05.759Z,16.60
2023-04-24T18:01:33.755Z,16.54
2023-04-24T18:04:00.884Z,16.46
2023-04-24T18:06:28.444Z,16.37
2023-04-24T18:08:55.275Z,16.31
2023-04-24T18:11:22.012Z,16.20
2023-04-24T18:13:49.600Z,16.12
2023-04-24T18:16:16.420Z,16.01
2023-04-24T18:18:43.166Z,15.91
2023-04-24T18:21:09.925Z,15.80
2023-04-24T18:23:36.682Z,15.74
2023-04-24T18:26:03.724Z,15.66
2023-04-24T18:28:31.528Z,15.57
2023-04-24T18:30:58.787Z,15.49
2023-04-24T18:33:26.241Z,15.39
2023-04-24T18:35:53.064Z,15.30
2023-04-24T18:38:20.315Z,15.20
2023-04-24T18:40:47.053Z,15.13
2023-04-24T18:43:13.984Z,15.05
2023-04-24T18:45:40.775Z,14.97
2023-04-24T18:48:07.643Z,15.26
2023-04-24T18:50:34.552Z,15.15
2023-04-24T18:53:01.468Z,15.00
2023-04-24T18:55:28.234Z,14.88
2023-04-24T18:57:55.004Z,14.79
2023-04-24T19:00:22.049Z,14.74
2023-04-24T19:02:48.884Z,14.68
2023-04-24T19:05:16.319Z,14.61
2023-04-24T19:07:43.146Z,14.55
2023-04-24T19:10:10.751Z,14.52
2023-04-24T19:12:38.005Z,14.49
2023-04-24T19:15:05.615Z,14.47
2023-04-24T19:17:32.651Z,14.44
2023-04-24T19:19:59.482Z,14.41
2023-04-24T19:22:26.550Z,14.42
2023-04-24T19:24:53.869Z,14.38
2023-04-24T19:27:20.771Z,14.35
2023-04-24T19:29:48.123Z,14.32
2023-04-24T19:32:15.194Z,14.28
2023-04-24T19:34:42.052Z,14.27
2023-04-24T19:37:08.956Z,14.23
2023-04-24T19:39:35.876Z,14.22
2023-04-24T19:42:07.141Z,14.19
2023-04-24T19:44:34.470Z,14.17
2023-04-24T19:47:01.372Z,14.13
2023-04-24T19:49:28.284Z,14.09
2023-04-24T19:51:55.145Z,14.04
2023-04-24T19:54:22.526Z,13.98
2023-04-24T19:56:49.285Z,13.91
2023-04-24T19:59:15.996Z,13.83
2023-04-24T20:01:43.437Z,13.79
2023-04-24T20:04:11.776Z,13.74
2023-04-24T20:06:39.080Z,13.71
2023-04-24T20:09:05.962Z,13.68
2023-04-24T20:11:33.935Z,13.66
2023-04-24T20:14:03.482Z,13.61
2023-04-24T20:16:30.987Z,13.57
2023-04-24T20:18:58.556Z,13.51
2023-04-24T20:21:25.349Z,13.45
2023-04-24T20:23:52.272Z,13.41
2023-04-24T20:26:19.046Z,13.36
2023-04-24T20:28:46.043Z,13.32
2023-04-24T20:31:13.621Z,13.29
2023-04-24T20:33:41.605Z,13.25
2023-04-24T20:36:11.984Z,13.24
2023-04-24T20:38:38.804Z,13.22
2023-04-24T20:41:05.604Z,13.18
2023-04-24T20:43:32.404Z,13.15
2023-04-24T20:45:59.444Z,13.10
2023-04-24T20:48:26.623Z,13.07
2023-04-24T20:50:53.877Z,13.04
2023-04-24T20:53:23.715Z,13.02
2023-04-24T20:55:50.735Z,12.99
2023-04-24T20:58:23.951Z,12.97
2023-04-24T21:00:52.258Z,12.95
2023-04-24T21:03:19.508Z,12.92
2023-04-24T21:05:47.062Z,12.89
2023-04-24T21:08:14.257Z,12.86
2023-04-24T21:10:41.095Z,12.82
2023-04-24T21:13:07.977Z,12.78
2023-04-24T21:15:34.851Z,12.72
2023-04-24T21:18:03.382Z,12.67
2023-04-24T21:20:30.375Z,12.63
2023-04-24T21:22:57.219Z,12.60
2023-04-24T21:25:23.979Z,12.55
2023-04-24T21:27:50.831Z,12.54
2023-04-24T21:30:18.943Z,12.51
2023-04-24T21:32:45.823Z,12.50
2023-04-24T21:35:12.593Z,12.48
2023-04-24T21:37:39.898Z,12.46
2023-04-24T21:40:10.932Z,12.47
2023-04-24T21:42:39.308Z,12.47
2023-04-24T21:45:06.891Z,12.47
2023-04-24T21:47:33.737Z,12.48
2023-04-24T21:50:00.613Z,12.49
2023-04-24T21:52:27.472Z,12.45
2023-04-24T21:54:54.179Z,12.46
2023-04-24T21:57:21.171Z,12.43
2023-04-24T21:59:48.296Z,12.43
2023-04-24T22:02:15.287Z,12.42
2023-04-24T22:04:42.347Z,12.39
2023-04-24T22:07:09.834Z,12.41
2023-04-24T22:09:36.588Z,12.41
2023-04-24T22:12:05.142Z,12.41
2023-04-24T22:14:32.036Z,12.43
2023-04-24T22:16:58.808Z,12.40
2023-04-24T22:19:26.275Z,12.42
2023-04-24T22:21:53.280Z,12.43
2023-04-24T22:24:20.262Z,12.45
2023-04-24T22:26:46.977Z,12.45
2023-04-24T22:29:13.908Z,12.47
2023-04-24T22:31:41.534Z,12.47
2023-04-24T22:34:09.321Z,12.48
2023-04-24T22:36:36.168Z,12.50
2023-04-24T22:39:05.012Z,12.51
2023-04-24T22:41:32.044Z,12.51
2023-04-24T22:43:58.967Z,12.49
2023-04-24T22:46:26.074Z,12.47
2023-04-24T22:48:52.907Z,12.48
2023-04-24T22:51:19.787Z,12.47
2023-04-24T22:53:46.956Z,12.46
2023-04-24T22:56:15.196Z,12.46
2023-04-24T22:58:42.040Z,12.45
2023-04-24T23:01:08.945Z,12.47
2023-04-24T23:03:35.962Z,12.46
2023-04-24T23:06:03.016Z,12.46
2023-04-24T23:08:30.665Z,12.44
2023-04-24T23:10:58.617Z,12.40
2023-04-24T23:13:26.233Z,12.38
2023-04-24T23:15:54.713Z,12.34
2023-04-24T23:18:21.932Z,12.32
2023-04-24T23:20:48.760Z,12.29
2023-04-24T23:23:16.499Z,12.25
2023-04-24T23:25:43.327Z,12.23
2023-04-24T23:28:10.116Z,12.19
2023-04-24T23:30:36.825Z,12.15
2023-04-24T23:33:03.636Z,12.11
2023-04-24T23:35:31.339Z,12.06
2023-04-24T23:37:58.209Z,11.97
2023-04-24T23:40:25.029Z,11.92
2023-04-24T23:43:03.329Z,11.87
2023-04-24T23:45:34.256Z,11.80
2023-04-24T23:48:01.216Z,11.78
2023-04-24T23:50:28.042Z,11.73
2023-04-24T23:52:55.033Z,11.68
2023-04-24T23:55:22.088Z,11.68
2023-04-24T23:57:48.852Z,11.64
